createdAt,value
2018-01-04T00:00:54.963Z,78.56
2018-01-04T00:03:23.248Z,78.19
2018-01-04T00:05:51.580Z,77.77
2018-01-04T00:08:19.887Z,77.88
2018-01-04T00:10:48.167Z,77.49
2018-01-04T00:15:50.045Z,77.16
2018-01-04T00:18:18.300Z,78.11
2018-01-04T00:20:46.596Z,78.67
2018-01-04T00:23:14.871Z,79.36
2018-01-04T00:25:43.199Z,79.95
2018-01-04T00:30:45.097Z,80.31
2018-01-04T00:33:13.342Z,80.35
2018-01-04T00:35:41.664Z,80.37
2018-01-04T00:40:49.422Z,80.32
2018-01-04T00:43:17.724Z,80.20
2018-01-04T00:45:52.079Z,80.46
2018-01-04T00:48:20.350Z,80.28
2018-01-04T00:50:48.624Z,79.90
2018-01-04T00:53:16.930Z,80.63
2018-01-04T00:55:45.195Z,80.54
2018-01-04T00:58:13.530Z,80.29
2018-01-04T01:00:41.776Z,80.66
2018-01-04T01:03:10.070Z,80.89
2018-01-04T01:05:38.379Z,81.34
2018-01-04T01:08:06.666Z,81.34
2018-01-04T01:10:34.953Z,80.86
2018-01-04T01:13:03.295Z,81.48
2018-01-04T01:15:31.568Z,81.20
2018-01-04T01:17:59.869Z,81.12
2018-01-04T01:20:28.147Z,81.25
2018-01-04T01:22:56.442Z,81.53
2018-01-04T01:25:24.888Z,80.95
2018-01-04T01:27:53.187Z,81.02
2018-01-04T01:30:21.476Z,80.81
2018-01-04T01:32:49.782Z,80.89
2018-01-04T01:35:18.056Z,80.91
2018-01-04T01:37:46.372Z,81.30
2018-01-04T01:40:14.690Z,81.47
2018-01-04T01:42:42.954Z,81.75
2018-01-04T01:45:11.243Z,81.39
2018-01-04T01:47:39.512Z,81.02
2018-01-04T01:50:07.823Z,80.99
2018-01-04T01:52:36.527Z,81.12
2018-01-04T01:55:05.086Z,81.30
2018-01-04T01:57:33.340Z,81.07
2018-01-04T02:00:01.711Z,81.58
2018-01-04T02:02:29.969Z,81.61
2018-01-04T02:04:58.271Z,81.29
2018-01-04T02:07:26.602Z,81.39
2018-01-04T02:09:54.888Z,81.08
2018-01-04T02:12:23.156Z,81.45
2018-01-04T02:14:51.476Z,81.66
2018-01-04T02:17:19.758Z,81.17
2018-01-04T02:19:59.805Z,81.36
2018-01-04T02:22:39.868Z,81.18
2018-01-04T02:25:19.782Z,81.01
2018-01-04T02:27:59.687Z,81.30
2018-01-04T02:33:45.037Z,81.72
2018-01-04T02:36:26.662Z,82.14
2018-01-04T02:39:06.799Z,82.06
2018-01-04T02:41:46.822Z,82.33
2018-01-04T02:44:26.911Z,82.73
2018-01-04T02:46:55.595Z,82.99
2018-01-04T02:49:23.869Z,83.05
2018-01-04T02:51:52.181Z,83.21
2018-01-04T02:54:20.447Z,83.39
2018-01-04T02:56:48.743Z,84.76
2018-01-04T02:59:17.054Z,84.70
2018-01-04T03:01:45.355Z,84.48
2018-01-04T03:06:53.045Z,82.50
2018-01-04T03:09:21.339Z,82.29
2018-01-04T03:11:49.664Z,82.49
2018-01-04T03:14:17.908Z,81.70
2018-01-04T03:16:46.183Z,81.48
2018-01-04T03:19:14.481Z,81.91
2018-01-04T03:21:48.476Z,81.71
2018-01-04T03:24:16.790Z,81.94
2018-01-04T03:26:50.558Z,82.18
2018-01-04T03:29:27.163Z,82.15
2018-01-04T03:32:00.997Z,82.80
2018-01-04T03:34:34.916Z,83.33
2018-01-04T03:37:08.836Z,83.49
2018-01-04T03:39:37.145Z,83.44
2018-01-04T03:42:10.939Z,83.35
2018-01-04T03:44:44.756Z,83.53
2018-01-04T03:50:23.779Z,84.01
2018-01-04T03:52:52.054Z,84.13
2018-01-04T03:55:25.804Z,84.42
2018-01-04T03:57:54.107Z,84.37
2018-01-04T04:00:28.123Z,84.30
2018-01-04T04:02:56.384Z,84.23
2018-01-04T04:05:30.230Z,84.28
2018-01-04T04:08:04.954Z,84.65
2018-01-04T04:10:33.239Z,84.45
2018-01-04T04:13:01.506Z,84.31
2018-01-04T04:15:30.456Z,84.18
2018-01-04T04:17:58.728Z,84.06
2018-01-04T04:20:27.013Z,83.92
2018-01-04T04:22:55.374Z,84.47
2018-01-04T04:25:23.697Z,84.57
2018-01-04T04:27:51.990Z,84.57
2018-01-04T04:30:20.255Z,84.77
2018-01-04T04:32:48.542Z,84.76
2018-01-04T04:35:16.802Z,84.52
2018-01-04T04:37:45.107Z,84.34
2018-01-04T04:40:13.411Z,84.19
2018-01-04T04:42:41.720Z,84.25
2018-01-04T04:45:09.968Z,84.14
2018-01-04T04:47:38.276Z,83.99
2018-01-04T04:50:06.568Z,83.55
2018-01-04T04:52:34.848Z,83.37
2018-01-04T04:55:03.204Z,83.50
2018-01-04T04:57:31.446Z,83.46
2018-01-04T04:59:59.754Z,83.02
2018-01-04T05:02:28.019Z,82.53
2018-01-04T05:04:56.316Z,82.30
2018-01-04T05:07:24.571Z,82.09
2018-01-04T05:09:52.861Z,82.04
2018-01-04T05:12:21.150Z,81.30
2018-01-04T05:14:49.432Z,80.59
2018-01-04T05:17:17.688Z,81.26
2018-01-04T05:19:45.980Z,80.50
2018-01-04T05:22:14.244Z,80.56
2018-01-04T05:24:42.534Z,80.76
2018-01-04T05:27:10.801Z,80.23
2018-01-04T05:29:39.091Z,80.26
2018-01-04T05:32:07.341Z,80.50
2018-01-04T05:34:35.625Z,80.39
2018-01-04T05:37:03.882Z,80.38
2018-01-04T05:39:32.180Z,80.54
2018-01-04T05:42:00.468Z,80.66
2018-01-04T05:44:28.727Z,80.70
2018-01-04T05:46:57.003Z,80.60
2018-01-04T05:49:25.274Z,80.51
2018-01-04T05:51:53.562Z,80.56
2018-01-04T05:54:21.838Z,80.68
2018-01-04T05:56:50.133Z,80.42
2018-01-04T05:59:18.422Z,80.57
2018-01-04T06:01:46.723Z,81.26
2018-01-04T06:04:14.998Z,81.28
2018-01-04T06:06:43.295Z,81.76
2018-01-04T06:09:11.588Z,81.97
2018-01-04T06:11:39.872Z,82.21
2018-01-04T06:14:08.124Z,82.39
2018-01-04T06:16:36.440Z,82.63
2018-01-04T06:19:05.421Z,82.56
2018-01-04T06:21:33.696Z,82.69
2018-01-04T06:24:02.763Z,82.96
2018-01-04T06:26:31.062Z,83.23
2018-01-04T06:29:00.081Z,83.45
2018-01-04T06:31:28.395Z,83.67
2018-01-04T06:33:57.568Z,83.71
2018-01-04T06:36:25.835Z,83.96
2018-01-04T06:38:54.150Z,84.19
2018-01-04T06:41:22.455Z,84.33
2018-01-04T06:43:50.740Z,84.58
2018-01-04T06:48:52.625Z,84.84
2018-01-04T06:51:20.901Z,85.08
2018-01-04T06:53:49.290Z,85.34
2018-01-04T06:56:17.566Z,85.15
2018-01-04T06:58:45.851Z,84.95
2018-01-04T07:01:14.192Z,84.82
2018-01-04T07:03:42.489Z,84.83
2018-01-04T07:06:10.774Z,84.98
2018-01-04T07:08:39.042Z,85.15
2018-01-04T07:11:07.327Z,85.28
2018-01-04T07:13:35.707Z,85.34
2018-01-04T07:16:04.801Z,85.10
2018-01-04T07:18:33.084Z,85.05
2018-01-04T07:21:01.367Z,84.92
2018-01-04T07:23:29.639Z,84.94
2018-01-04T07:25:58.186Z,85.11
2018-01-04T07:28:26.470Z,84.97
2018-01-04T07:30:54.796Z,85.20
2018-01-04T07:33:23.735Z,85.21
2018-01-04T07:35:52.008Z,85.19
2018-01-04T07:38:20.330Z,85.48
2018-01-04T07:40:48.698Z,85.47
2018-01-04T07:43:16.990Z,85.42
2018-01-04T07:45:45.264Z,85.28
2018-01-04T07:48:13.540Z,85.39
2018-01-04T07:50:41.809Z,85.48
2018-01-04T07:53:10.099Z,85.54
2018-01-04T07:55:38.360Z,85.48
2018-01-04T07:58:06.634Z,85.54
2018-01-04T08:00:34.923Z,85.46
2018-01-04T08:03:03.222Z,85.59
2018-01-04T08:05:31.480Z,85.80
2018-01-04T08:07:59.767Z,85.64
2018-01-04T08:10:28.033Z,85.61
2018-01-04T08:12:56.307Z,85.73
2018-01-04T08:15:24.633Z,85.81
2018-01-04T08:17:52.914Z,85.73
2018-01-04T08:20:21.220Z,85.95
2018-01-04T08:22:49.479Z,85.95
2018-01-04T08:25:17.755Z,85.95
2018-01-04T08:27:46.032Z,85.74
2018-01-04T08:30:14.299Z,85.62
2018-01-04T08:32:42.569Z,85.79
2018-01-04T08:35:10.863Z,85.89
2018-01-04T08:37:39.228Z,86.09
2018-01-04T08:40:07.502Z,86.08
2018-01-04T08:42:36.063Z,86.12
2018-01-04T08:45:04.768Z,85.92
2018-01-04T08:47:33.306Z,85.86
2018-01-04T08:50:01.564Z,85.83
2018-01-04T08:52:29.855Z,85.97
2018-01-04T08:54:58.124Z,86.05
2018-01-04T08:57:26.412Z,85.93
2018-01-04T08:59:54.669Z,85.87
2018-01-04T09:02:22.988Z,85.97
2018-01-04T09:04:51.243Z,85.78
2018-01-04T09:07:19.567Z,85.89
2018-01-04T09:09:47.843Z,86.07
2018-01-04T09:12:16.146Z,85.85
2018-01-04T09:14:44.716Z,85.86
2018-01-04T09:17:13.030Z,85.47
2018-01-04T09:19:41.361Z,85.42
2018-01-04T09:22:09.582Z,85.47
2018-01-04T09:24:37.896Z,85.74
2018-01-04T09:27:06.237Z,85.57
2018-01-04T09:29:34.528Z,85.62
2018-01-04T09:32:02.784Z,85.29
2018-01-04T09:34:31.108Z,85.58
2018-01-04T09:36:59.411Z,85.47
2018-01-04T09:39:27.723Z,85.24
2018-01-04T09:41:55.975Z,85.47
2018-01-04T09:44:24.261Z,85.49
2018-01-04T09:46:52.580Z,85.68
2018-01-04T09:49:20.853Z,85.56
2018-01-04T09:51:49.142Z,85.37
2018-01-04T09:54:17.452Z,85.27
2018-01-04T09:56:45.703Z,85.62
2018-01-04T09:59:13.966Z,85.34
2018-01-04T10:01:42.250Z,85.33
2018-01-04T10:04:10.520Z,85.12
2018-01-04T10:06:38.799Z,85.06
2018-01-04T10:09:07.093Z,85.18
2018-01-04T10:11:35.396Z,85.26
2018-01-04T10:14:03.647Z,85.41
2018-01-04T10:16:31.938Z,85.35
2018-01-04T10:19:00.203Z,85.13
2018-01-04T10:21:29.302Z,85.04
2018-01-04T10:23:57.722Z,85.05
2018-01-04T10:26:26.040Z,85.08
2018-01-04T10:28:54.530Z,84.98
2018-01-04T10:31:22.860Z,84.89
2018-01-04T10:33:51.486Z,84.96
2018-01-04T10:36:19.855Z,85.32
2018-01-04T10:38:48.148Z,85.66
2018-01-04T10:41:16.616Z,85.64
2018-01-04T10:43:45.648Z,85.76
2018-01-04T10:46:13.910Z,85.93
2018-01-04T10:48:42.291Z,85.72
2018-01-04T10:51:10.873Z,85.78
2018-01-04T10:53:39.155Z,85.79
2018-01-04T10:56:07.428Z,85.27
2018-01-04T10:58:35.727Z,85.21
2018-01-04T11:01:03.979Z,85.19
2018-01-04T11:03:32.280Z,85.48
2018-01-04T11:06:01.463Z,85.18
2018-01-04T11:08:29.758Z,85.53
2018-01-04T11:10:58.049Z,85.50
2018-01-04T11:13:26.340Z,85.62
2018-01-04T11:15:54.654Z,85.50
2018-01-04T11:18:22.940Z,85.38
2018-01-04T11:20:51.307Z,85.72
2018-01-04T11:23:19.583Z,85.72
2018-01-04T11:25:47.883Z,85.73
2018-01-04T11:28:16.150Z,85.72
2018-01-04T11:30:44.443Z,85.80
2018-01-04T11:33:12.776Z,85.53
2018-01-04T11:35:41.102Z,85.55
2018-01-04T11:38:09.423Z,85.60
2018-01-04T11:40:37.714Z,85.76
2018-01-04T11:43:06.022Z,85.77
2018-01-04T11:45:34.303Z,85.93
2018-01-04T11:48:02.677Z,85.84
2018-01-04T11:50:30.920Z,85.87
2018-01-04T11:52:59.368Z,85.79
2018-01-04T11:55:27.643Z,85.93
2018-01-04T11:57:55.970Z,86.04
2018-01-04T12:00:24.212Z,86.05
2018-01-04T12:02:52.498Z,86.44
2018-01-04T12:05:20.782Z,86.52
2018-01-04T12:07:49.053Z,86.85
2018-01-04T12:10:17.360Z,87.01
2018-01-04T12:12:45.693Z,87.12
2018-01-04T12:15:14.080Z,87.18
2018-01-04T12:17:42.411Z,87.20
2018-01-04T12:20:10.711Z,87.43
2018-01-04T12:22:38.986Z,87.75
2018-01-04T12:25:07.298Z,87.69
2018-01-04T12:27:35.586Z,87.70
2018-01-04T12:30:03.895Z,87.83
2018-01-04T12:32:32.224Z,87.55
2018-01-04T12:35:00.657Z,87.54
2018-01-04T12:37:28.949Z,87.68
2018-01-04T12:39:57.225Z,87.70
2018-01-04T12:42:25.556Z,87.71
2018-01-04T12:44:53.872Z,87.91
2018-01-04T12:47:22.183Z,87.88
2018-01-04T12:49:50.510Z,87.78
2018-01-04T12:52:18.840Z,87.69
2018-01-04T12:54:47.095Z,87.62
2018-01-04T12:57:15.422Z,87.69
2018-01-04T12:59:43.759Z,87.80
2018-01-04T13:02:12.328Z,88.14
2018-01-04T13:04:40.916Z,88.23
2018-01-04T13:07:09.183Z,88.29
2018-01-04T13:09:37.493Z,88.36
2018-01-04T13:12:05.753Z,88.42
2018-01-04T13:14:34.043Z,88.64
2018-01-04T13:17:02.639Z,88.65
2018-01-04T13:19:30.993Z,88.68
2018-01-04T13:21:59.260Z,88.64
2018-01-04T13:24:27.758Z,88.62
2018-01-04T13:26:56.265Z,88.61
2018-01-04T13:29:24.588Z,88.77
2018-01-04T13:31:52.866Z,88.88
2018-01-04T13:34:21.144Z,88.78
2018-01-04T13:36:49.437Z,88.97
2018-01-04T13:39:17.703Z,89.08
2018-01-04T13:41:45.998Z,89.07
2018-01-04T13:44:14.374Z,89.29
2018-01-04T13:46:42.820Z,89.23
2018-01-04T13:49:11.135Z,89.28
2018-01-04T13:51:39.478Z,89.48
2018-01-04T13:54:07.759Z,89.39
2018-01-04T13:56:36.055Z,89.52
2018-01-04T13:59:05.438Z,89.58
2018-01-04T14:01:33.734Z,89.82
2018-01-04T14:04:02.011Z,90.13
2018-01-04T14:06:30.315Z,90.25
2018-01-04T14:08:58.584Z,90.52
2018-01-04T14:11:27.662Z,90.74
2018-01-04T14:13:56.000Z,91.16
2018-01-04T14:16:24.443Z,91.31
2018-01-04T14:18:52.694Z,91.40
2018-01-04T14:21:21.003Z,91.50
2018-01-04T14:23:49.288Z,91.65
2018-01-04T14:26:17.587Z,91.46
2018-01-04T14:28:46.214Z,91.25
2018-01-04T14:31:14.568Z,91.07
2018-01-04T14:33:42.919Z,90.78
2018-01-04T14:36:11.380Z,90.51
2018-01-04T14:38:40.646Z,90.25
2018-01-04T14:41:08.893Z,90.08
2018-01-04T14:43:37.232Z,90.14
2018-01-04T14:46:05.500Z,90.23
2018-01-04T14:48:33.850Z,90.47
2018-01-04T14:51:02.148Z,90.37
2018-01-04T14:53:30.422Z,90.38
2018-01-04T14:55:58.711Z,90.44
2018-01-04T14:58:26.983Z,90.50
2018-01-04T15:00:55.300Z,90.58
2018-01-04T15:03:23.582Z,90.40
2018-01-04T15:05:51.900Z,90.30
2018-01-04T15:08:20.173Z,90.29
2018-01-04T15:10:48.629Z,90.29
2018-01-04T15:13:16.908Z,90.24
2018-01-04T15:15:45.259Z,90.28
2018-01-04T15:18:13.584Z,90.80
2018-01-04T15:20:41.872Z,90.91
2018-01-04T15:23:10.148Z,90.90
2018-01-04T15:25:38.463Z,91.19
2018-01-04T15:28:06.777Z,91.08
2018-01-04T15:30:35.056Z,91.15
2018-01-04T15:33:03.391Z,91.15
2018-01-04T15:35:31.646Z,91.33
2018-01-04T15:38:00.042Z,91.12
2018-01-04T15:40:28.319Z,91.18
2018-01-04T15:42:56.667Z,91.05
2018-01-04T15:45:24.946Z,91.24
2018-01-04T15:47:53.329Z,91.36
2018-01-04T15:50:21.604Z,91.21
2018-01-04T15:52:49.922Z,91.21
2018-01-04T15:55:18.239Z,91.25
2018-01-04T15:57:47.635Z,91.38
2018-01-04T16:00:16.013Z,91.05
2018-01-04T16:02:44.305Z,90.64
2018-01-04T16:05:12.581Z,90.46
2018-01-04T16:07:40.880Z,90.10
2018-01-04T16:10:10.145Z,90.10
2018-01-04T16:12:38.436Z,89.12
2018-01-04T16:15:06.830Z,88.40
2018-01-04T16:17:35.082Z,88.03
2018-01-04T16:20:04.520Z,88.19
2018-01-04T16:22:32.805Z,87.39
2018-01-04T16:25:01.102Z,87.27
2018-01-04T16:27:29.359Z,87.28
2018-01-04T16:29:57.643Z,87.50
2018-01-04T16:32:25.911Z,87.32
2018-01-04T16:34:54.211Z,87.25
2018-01-04T16:37:22.483Z,86.77
2018-01-04T16:39:51.722Z,87.41
2018-01-04T16:42:20.058Z,86.94
2018-01-04T16:44:48.348Z,86.66
2018-01-04T16:47:16.673Z,87.11
2018-01-04T16:49:44.936Z,87.39
2018-01-04T16:52:13.243Z,88.01
2018-01-04T16:54:41.513Z,88.25
2018-01-04T16:57:09.828Z,88.77
2018-01-04T16:59:38.303Z,88.89
2018-01-04T17:02:06.573Z,89.18
2018-01-04T17:04:34.872Z,88.15
2018-01-04T17:07:03.188Z,88.43
2018-01-04T17:12:06.042Z,89.00
2018-01-04T17:14:34.323Z,89.10
2018-01-04T17:17:02.644Z,89.35
2018-01-04T17:19:30.942Z,89.56
2018-01-04T17:21:59.216Z,89.31
2018-01-04T17:24:27.514Z,89.41
2018-01-04T17:26:55.816Z,90.39
2018-01-04T17:29:24.452Z,89.66
2018-01-04T17:31:52.741Z,89.22
2018-01-04T17:34:21.036Z,88.62
2018-01-04T17:36:49.494Z,88.90
2018-01-04T17:39:17.742Z,90.06
2018-01-04T17:41:46.072Z,90.85
2018-01-04T17:44:14.340Z,91.00
2018-01-04T17:46:42.660Z,91.86
2018-01-04T17:49:10.921Z,92.46
2018-01-04T17:51:39.221Z,92.86
2018-01-04T17:54:07.541Z,93.28
2018-01-04T17:56:36.718Z,93.29
2018-01-04T17:59:04.960Z,93.64
2018-01-04T18:01:33.291Z,94.07
2018-01-04T18:04:01.574Z,93.93
2018-01-04T18:06:29.860Z,93.30
2018-01-04T18:08:58.134Z,93.13
2018-01-04T18:11:26.679Z,92.10
2018-01-04T18:13:54.959Z,91.83
2018-01-04T18:16:23.272Z,91.35
2018-01-04T18:18:51.562Z,89.36
2018-01-04T18:21:20.612Z,88.98
2018-01-04T18:23:48.984Z,87.96
2018-01-04T18:26:17.232Z,88.49
2018-01-04T18:28:45.505Z,89.16
2018-01-04T18:31:13.778Z,90.46
2018-01-04T18:33:42.087Z,90.37
2018-01-04T18:36:10.358Z,90.05
2018-01-04T18:38:39.173Z,91.18
2018-01-04T18:41:07.452Z,91.55
2018-01-04T18:43:35.774Z,91.15
2018-01-04T18:46:04.855Z,91.40
2018-01-04T18:48:33.185Z,91.71
2018-01-04T18:51:01.425Z,92.07
2018-01-04T18:53:29.734Z,91.81
2018-01-04T18:55:58.156Z,91.83
2018-01-04T18:58:27.154Z,91.14
2018-01-04T19:00:56.675Z,90.84
2018-01-04T19:03:24.947Z,90.41
2018-01-04T19:05:53.255Z,89.00
2018-01-04T19:08:21.552Z,88.32
2018-01-04T19:10:49.872Z,88.25
2018-01-04T19:13:18.155Z,87.81
2018-01-04T19:15:46.475Z,87.36
2018-01-04T19:18:14.786Z,86.50
2018-01-04T19:20:43.080Z,86.82
2018-01-04T19:23:11.375Z,85.94
2018-01-04T19:25:39.672Z,82.60
2018-01-04T19:28:07.973Z,83.68
2018-01-04T19:30:36.289Z,80.86
2018-01-04T19:33:04.568Z,81.14
2018-01-04T19:35:32.847Z,81.72
2018-01-04T19:38:01.524Z,81.52
2018-01-04T19:40:29.792Z,81.81
2018-01-04T19:42:58.612Z,81.20
2018-01-04T19:45:26.991Z,81.32
2018-01-04T19:47:55.282Z,81.53
2018-01-04T19:50:23.615Z,81.12
2018-01-04T19:52:51.909Z,82.09
2018-01-04T19:55:20.194Z,82.51
2018-01-04T19:57:48.492Z,81.66
2018-01-04T20:00:16.783Z,82.59
2018-01-04T20:02:45.083Z,82.57
2018-01-04T20:05:13.397Z,82.72
2018-01-04T20:07:41.678Z,81.85
2018-01-04T20:10:10.160Z,82.61
2018-01-04T20:12:38.417Z,82.81
2018-01-04T20:15:06.705Z,82.68
2018-01-04T20:17:34.981Z,82.08
2018-01-04T20:20:03.849Z,82.21
2018-01-04T20:22:32.384Z,81.97
2018-01-04T20:25:00.715Z,83.88
2018-01-04T20:27:28.988Z,83.11
2018-01-04T20:29:57.325Z,82.19
2018-01-04T20:32:25.552Z,82.88
2018-01-04T20:34:54.175Z,83.02
2018-01-04T20:37:22.441Z,82.82
2018-01-04T20:39:50.764Z,82.06
2018-01-04T20:42:19.060Z,80.77
2018-01-04T20:44:47.370Z,81.49
2018-01-04T20:47:15.640Z,82.00
2018-01-04T20:49:43.899Z,81.39
2018-01-04T20:52:12.219Z,81.14
2018-01-04T20:54:40.499Z,81.88
2018-01-04T20:57:08.794Z,80.74
2018-01-04T20:59:37.084Z,81.70
2018-01-04T21:02:05.591Z,81.69
2018-01-04T21:04:33.875Z,81.33
2018-01-04T21:07:02.196Z,80.90
2018-01-04T21:09:30.487Z,80.47
2018-01-04T21:11:58.794Z,80.76
2018-01-04T21:14:27.117Z,79.34
2018-01-04T21:16:55.404Z,79.11
2018-01-04T21:19:23.764Z,77.60
2018-01-04T21:21:52.043Z,77.20
2018-01-04T21:24:20.375Z,77.64
2018-01-04T21:26:48.658Z,77.51
2018-01-04T21:29:16.975Z,79.12
2018-01-04T21:31:45.222Z,77.87
2018-01-04T21:34:13.534Z,78.04
2018-01-04T21:36:41.804Z,77.03
2018-01-04T21:39:10.120Z,77.31
2018-01-04T21:41:38.388Z,77.00
2018-01-04T21:44:06.808Z,76.32
2018-01-04T21:46:35.084Z,77.01
2018-01-04T21:49:03.398Z,77.25
2018-01-04T21:51:31.666Z,75.96
2018-01-04T21:53:59.959Z,76.55
2018-01-04T21:56:28.272Z,77.64
2018-01-04T21:58:56.535Z,74.79
2018-01-04T22:01:24.847Z,74.97
2018-01-04T22:03:53.115Z,77.13
2018-01-04T22:06:21.457Z,77.93
2018-01-04T22:08:49.733Z,77.46
2018-01-04T22:11:18.024Z,76.54
2018-01-04T22:13:46.329Z,76.20
2018-01-04T22:16:14.593Z,77.38
2018-01-04T22:18:42.855Z,78.91
2018-01-04T22:21:11.232Z,79.83
2018-01-04T22:23:39.527Z,78.72
2018-01-04T22:26:07.783Z,79.01
2018-01-04T22:28:36.148Z,79.50
2018-01-04T22:31:04.408Z,78.43
2018-01-04T22:33:32.723Z,77.00
2018-01-04T22:36:00.995Z,77.40
2018-01-04T22:38:29.306Z,77.23
2018-01-04T22:40:57.572Z,76.41
2018-01-04T22:43:25.904Z,77.26
2018-01-04T22:45:54.179Z,76.11
2018-01-04T22:48:22.536Z,76.18
2018-01-04T22:50:50.832Z,76.09
2018-01-04T22:53:19.131Z,74.45
2018-01-04T22:55:47.404Z,75.11
2018-01-04T22:58:15.702Z,73.99
2018-01-04T23:00:48.901Z,74.38
2018-01-04T23:03:17.209Z,74.99
2018-01-04T23:05:45.536Z,74.62
2018-01-04T23:08:13.797Z,75.86
2018-01-04T23:10:42.096Z,74.48
2018-01-04T23:13:10.363Z,74.85
2018-01-04T23:15:38.666Z,73.04
2018-01-04T23:18:06.939Z,74.06
2018-01-04T23:20:35.268Z,71.51
2018-01-04T23:23:03.573Z,74.86
2018-01-04T23:25:31.929Z,73.47
2018-01-04T23:28:00.226Z,73.29
2018-01-04T23:30:28.507Z,72.15
2018-01-04T23:32:56.787Z,73.27
2018-01-04T23:35:25.056Z,73.23
2018-01-04T23:37:53.712Z,72.78
2018-01-04T23:40:21.983Z,70.98
2018-01-04T23:42:50.296Z,68.60
2018-01-04T23:45:18.575Z,68.26
2018-01-04T23:47:46.867Z,68.05
2018-01-04T23:50:15.339Z,69.52
2018-01-04T23:52:43.631Z,70.83
2018-01-04T23:55:11.903Z,69.26
2018-01-04T23:57:40.695Z,70.36
